createdAt,value
2019-04-25T00:02:21.299Z,100430.55
2019-04-25T00:04:51.544Z,100431.87
2019-04-25T00:07:21.644Z,100439.81
2019-04-25T00:09:53.327Z,100443.70
2019-04-25T00:12:22.505Z,100445.05
2019-04-25T00:14:51.584Z,100442.56
2019-04-25T00:17:21.904Z,100441.16
2019-04-25T00:19:51.103Z,100438.55
2019-04-25T00:22:26.949Z,100436.92
2019-04-25T00:25:17.747Z,100439.22
2019-04-25T00:27:46.304Z,100436.98
2019-04-25T00:30:15.853Z,100444.48
2019-04-25T00:32:45.328Z,100449.74
2019-04-25T00:35:14.356Z,100451.91
2019-04-25T00:37:44.285Z,100451.56
2019-04-25T00:40:13.697Z,100458.84
2019-04-25T00:42:43.649Z,100464.61
2019-04-25T00:45:14.027Z,100457.88
2019-04-25T00:47:44.404Z,100471.47
2019-04-25T00:50:13.414Z,100492.46
2019-04-25T00:52:43.509Z,100508.66
2019-04-25T00:55:13.218Z,100515.65
2019-04-25T00:57:44.808Z,100513.39
2019-04-25T01:00:24.013Z,100507.83
2019-04-25T01:02:54.418Z,100516.81
2019-04-25T01:05:23.576Z,100507.44
2019-04-25T01:07:53.578Z,100514.45
2019-04-25T01:10:23.249Z,100519.63
2019-04-25T01:12:53.136Z,100514.94
2019-04-25T01:15:23.752Z,100512.80
2019-04-25T01:17:53.444Z,100517.56
2019-04-25T01:20:22.113Z,100503.19
2019-04-25T01:22:51.385Z,100497.02
2019-04-25T01:25:20.441Z,100513.12
2019-04-25T01:27:49.756Z,100503.33
2019-04-25T01:30:21.460Z,100503.14
2019-04-25T01:32:50.517Z,100497.73
2019-04-25T01:35:50.728Z,100509.73
2019-04-25T01:38:30.496Z,100516.73
2019-04-25T01:41:34.213Z,100510.69
2019-04-25T01:44:07.763Z,100523.91
2019-04-25T01:46:38.636Z,100517.77
2019-04-25T01:49:07.597Z,100504.91
2019-04-25T01:51:36.239Z,100511.47
2019-04-25T01:54:05.291Z,100533.75
2019-04-25T01:56:34.020Z,100532.02
2019-04-25T01:59:03.927Z,100527.16
2019-04-25T02:01:34.124Z,100515.83
2019-04-25T02:04:03.586Z,100531.98
2019-04-25T02:06:33.513Z,100540.41
2019-04-25T02:09:04.204Z,100527.73
2019-04-25T02:11:39.918Z,100528.25
2019-04-25T02:14:09.319Z,100533.75
2019-04-25T02:16:38.364Z,100532.06
2019-04-25T02:19:07.311Z,100542.59
2019-04-25T02:21:36.611Z,100556.59
2019-04-25T02:24:05.830Z,100553.64
2019-04-25T02:26:35.111Z,100551.00
2019-04-25T02:29:04.750Z,100544.48
2019-04-25T02:31:34.777Z,100536.68
2019-04-25T02:34:08.156Z,100526.61
2019-04-25T02:36:34.940Z,100523.91
2019-04-25T02:39:08.980Z,100519.55
2019-04-25T02:41:37.677Z,100500.81
2019-04-25T02:44:09.886Z,100490.81
2019-04-25T02:46:50.966Z,100505.05
2019-04-25T02:49:51.554Z,100487.62
2019-04-25T02:52:27.802Z,100476.72
2019-04-25T02:54:58.388Z,100473.69
2019-04-25T02:57:27.064Z,100474.11
2019-04-25T02:59:57.077Z,100478.80
2019-04-25T03:02:26.752Z,100482.52
2019-04-25T03:04:57.556Z,100494.66
2019-04-25T03:07:26.338Z,100510.83
2019-04-25T03:09:55.289Z,100511.83
2019-04-25T03:12:30.587Z,100522.41
2019-04-25T03:14:55.119Z,100519.89
2019-04-25T03:17:24.746Z,100526.92
2019-04-25T03:20:24.245Z,100549.13
2019-04-25T03:22:54.641Z,100542.20
2019-04-25T03:25:24.830Z,100541.15
2019-04-25T03:27:54.150Z,100542.36
2019-04-25T03:30:25.270Z,100521.89
2019-04-25T03:32:55.953Z,100539.25
2019-04-25T03:35:23.523Z,100548.77
2019-04-25T03:37:52.172Z,100541.73
2019-04-25T03:40:21.092Z,100540.86
2019-04-25T03:42:50.090Z,100544.30
2019-04-25T03:45:18.713Z,100548.20
2019-04-25T03:47:47.678Z,100563.50
2019-04-25T03:50:16.656Z,100576.59
2019-04-25T03:52:45.352Z,100582.33
2019-04-25T03:55:14.449Z,100583.63
2019-04-25T03:57:44.294Z,100587.08
2019-04-25T04:00:14.542Z,100588.85
2019-04-25T04:02:44.304Z,100590.67
2019-04-25T04:05:14.824Z,100598.03
2019-04-25T04:07:43.915Z,100595.80
2019-04-25T04:10:15.104Z,100597.58
2019-04-25T04:12:44.323Z,100601.80
2019-04-25T04:15:15.591Z,100594.65
2019-04-25T04:17:55.585Z,100596.67
2019-04-25T04:20:58.546Z,100599.25
2019-04-25T04:23:44.619Z,100610.66
2019-04-25T04:26:15.740Z,100627.77
2019-04-25T04:28:44.884Z,100631.19
2019-04-25T04:31:15.162Z,100635.88
2019-04-25T04:33:44.068Z,100642.37
2019-04-25T04:36:15.021Z,100644.98
2019-04-25T04:38:44.265Z,100642.00
2019-04-25T04:41:14.297Z,100652.29
2019-04-25T04:43:44.151Z,100643.41
2019-04-25T04:46:14.182Z,100655.98
2019-04-25T04:48:43.927Z,100644.58
2019-04-25T04:51:14.531Z,100650.75
2019-04-25T04:53:43.826Z,100663.84
2019-04-25T04:56:15.099Z,100651.13
2019-04-25T04:58:43.288Z,100663.31
2019-04-25T05:01:14.147Z,100676.32
2019-04-25T05:03:56.054Z,100678.98
2019-04-25T05:06:49.748Z,100669.48
2019-04-25T05:09:23.842Z,100664.67
2019-04-25T05:11:53.988Z,100668.52
2019-04-25T05:14:24.271Z,100671.61
2019-04-25T05:16:53.927Z,100684.77
2019-04-25T05:19:23.854Z,100684.98
2019-04-25T05:21:53.708Z,100685.33
2019-04-25T05:24:24.967Z,100692.14
2019-04-25T05:26:54.026Z,100693.35
2019-04-25T05:29:24.122Z,100694.39
2019-04-25T05:31:54.340Z,100704.75
2019-04-25T05:34:25.618Z,100718.09
2019-04-25T05:36:53.984Z,100721.17
2019-04-25T05:39:24.075Z,100719.92
2019-04-25T05:42:07.510Z,100735.27
2019-04-25T05:44:35.590Z,100729.49
2019-04-25T05:47:04.482Z,100735.63
2019-04-25T05:49:34.250Z,100729.94
2019-04-25T05:52:04.034Z,100748.59
2019-04-25T05:54:34.373Z,100742.74
2019-04-25T05:57:03.746Z,100760.63
2019-04-25T05:59:33.736Z,100765.47
2019-04-25T06:02:03.924Z,100764.55
2019-04-25T06:04:33.556Z,100764.64
2019-04-25T06:07:03.088Z,100771.20
2019-04-25T06:09:54.665Z,100783.44
2019-04-25T06:12:29.749Z,100780.81
2019-04-25T06:14:58.626Z,100790.39
2019-04-25T06:17:35.495Z,100790.81
2019-04-25T06:20:06.335Z,100787.73
2019-04-25T06:22:58.351Z,100795.51
2019-04-25T06:25:32.886Z,100814.69
2019-04-25T06:28:00.184Z,100829.77
2019-04-25T06:30:31.690Z,100824.55
2019-04-25T06:33:00.811Z,100825.38
2019-04-25T06:35:29.632Z,100826.13
2019-04-25T06:37:58.691Z,100829.44
2019-04-25T06:40:30.349Z,100824.70
2019-04-25T06:42:58.527Z,100826.75
2019-04-25T06:45:40.534Z,100833.65
2019-04-25T06:48:18.350Z,100825.68
2019-04-25T06:50:47.893Z,100832.61
2019-04-25T06:53:16.489Z,100829.49
2019-04-25T06:55:45.450Z,100823.14
2019-04-25T06:58:14.675Z,100819.28
2019-04-25T07:00:57.141Z,100832.28
2019-04-25T07:03:15.500Z,100832.08
2019-04-25T07:05:44.878Z,100835.09
2019-04-25T07:08:13.489Z,100839.02
2019-04-25T07:10:42.175Z,100851.45
2019-04-25T07:13:11.026Z,100845.19
2019-04-25T07:15:39.735Z,100843.05
2019-04-25T07:18:08.707Z,100852.08
2019-04-25T07:20:37.401Z,100847.20
2019-04-25T07:23:06.391Z,100856.67
2019-04-25T07:25:38.013Z,100871.48
2019-04-25T07:28:28.507Z,100872.98
2019-04-25T07:31:33.521Z,100867.17
2019-04-25T07:34:16.065Z,100879.69
2019-04-25T07:36:45.685Z,100887.88
2019-04-25T07:39:14.657Z,100882.87
2019-04-25T07:41:44.146Z,100878.95
2019-04-25T07:44:14.595Z,100883.86
2019-04-25T07:46:43.826Z,100880.72
2019-04-25T07:49:13.449Z,100882.86
2019-04-25T07:51:43.204Z,100889.73
2019-04-25T07:54:14.316Z,100898.34
2019-04-25T07:56:43.805Z,100901.14
2019-04-25T07:59:13.914Z,100891.36
2019-04-25T08:01:43.615Z,100900.27
2019-04-25T08:04:13.655Z,100896.58
2019-04-25T08:06:44.533Z,100883.30
2019-04-25T08:09:15.443Z,100891.71
2019-04-25T08:11:44.125Z,100901.27
2019-04-25T08:14:28.583Z,100902.63
2019-04-25T08:16:59.236Z,100903.38
2019-04-25T08:19:28.724Z,100906.53
2019-04-25T08:21:59.331Z,100907.09
2019-04-25T08:24:28.391Z,100904.72
2019-04-25T08:26:58.246Z,100909.98
2019-04-25T08:29:27.125Z,100897.06
2019-04-25T08:31:55.830Z,100911.66
2019-04-25T08:34:24.445Z,100920.22
2019-04-25T08:36:54.310Z,100917.86
2019-04-25T08:39:24.071Z,100916.52
2019-04-25T08:41:54.118Z,100918.87
2019-04-25T08:44:24.101Z,100918.13
2019-04-25T08:46:53.529Z,100918.91
2019-04-25T08:49:31.368Z,100918.02
2019-04-25T08:52:00.197Z,100926.86
2019-04-25T08:54:47.252Z,100925.14
2019-04-25T08:57:23.625Z,100928.37
2019-04-25T09:00:09.123Z,100931.38
2019-04-25T09:02:59.848Z,100922.33
2019-04-25T09:05:37.771Z,100931.91
2019-04-25T09:08:07.238Z,100932.73
2019-04-25T09:10:38.215Z,100939.27
2019-04-25T09:13:06.656Z,100934.45
2019-04-25T09:15:36.636Z,100939.77
2019-04-25T09:18:05.683Z,100948.66
2019-04-25T09:20:38.053Z,100952.28
2019-04-25T09:23:04.980Z,100955.28
2019-04-25T09:25:35.464Z,100960.97
2019-04-25T09:28:04.514Z,100955.51
2019-04-25T09:30:34.909Z,100958.55
2019-04-25T09:33:04.657Z,100963.91
2019-04-25T09:35:33.745Z,100956.66
2019-04-25T09:38:03.442Z,100966.03
2019-04-25T09:40:34.059Z,100961.38
2019-04-25T09:43:03.628Z,100957.78
2019-04-25T09:45:53.178Z,100961.05
2019-04-25T09:48:35.357Z,100965.14
2019-04-25T09:51:07.900Z,100966.33
2019-04-25T09:53:43.419Z,100964.79
2019-04-25T09:56:18.131Z,100970.16
2019-04-25T09:58:53.832Z,100968.67
2019-04-25T10:01:23.989Z,100970.42
2019-04-25T10:03:54.384Z,100964.31
2019-04-25T10:06:23.520Z,100968.90
2019-04-25T10:08:52.230Z,100966.63
2019-04-25T10:11:20.882Z,100961.52
2019-04-25T10:14:00.536Z,100955.37
2019-04-25T10:16:29.187Z,100954.03
2019-04-25T10:18:58.114Z,100946.39
2019-04-25T10:21:26.713Z,100949.53
2019-04-25T10:23:56.253Z,100946.52
2019-04-25T10:26:25.513Z,100952.25
2019-04-25T10:28:54.208Z,100948.38
2019-04-25T10:31:23.745Z,100944.61
2019-04-25T10:33:53.516Z,100932.82
2019-04-25T10:36:22.990Z,100935.50
2019-04-25T10:39:04.060Z,100939.45
2019-04-25T10:41:24.689Z,100934.78
2019-04-25T10:43:54.665Z,100931.44
2019-04-25T10:46:24.819Z,100941.66
2019-04-25T10:48:55.956Z,100937.91
2019-04-25T10:51:24.771Z,100941.22
2019-04-25T10:53:55.024Z,100937.77
2019-04-25T10:56:24.333Z,100943.92
2019-04-25T10:58:54.823Z,100957.17
2019-04-25T11:01:24.413Z,100950.41
2019-04-25T11:04:02.340Z,100970.88
2019-04-25T11:06:31.315Z,100971.47
2019-04-25T11:08:59.940Z,100969.61
2019-04-25T11:11:28.636Z,100969.20
2019-04-25T11:13:58.747Z,100962.23
2019-04-25T11:16:28.112Z,100957.53
2019-04-25T11:18:57.517Z,100967.11
2019-04-25T11:21:26.610Z,100973.03
2019-04-25T11:23:55.657Z,100972.01
2019-04-25T11:26:24.828Z,100964.82
2019-04-25T11:28:54.459Z,100961.05
2019-04-25T11:31:27.909Z,100964.52
2019-04-25T11:33:56.809Z,100957.09
2019-04-25T11:36:26.101Z,100967.35
2019-04-25T11:39:17.090Z,100967.23
2019-04-25T11:41:48.042Z,100959.88
2019-04-25T11:44:16.738Z,100961.78
2019-04-25T11:46:46.629Z,100973.70
2019-04-25T11:49:15.414Z,100970.31
2019-04-25T11:51:45.085Z,100972.08
2019-04-25T11:54:15.068Z,100974.73
2019-04-25T11:56:45.942Z,100973.81
2019-04-25T11:59:15.671Z,100972.49
2019-04-25T12:01:46.731Z,100968.66
2019-04-25T12:04:15.822Z,100972.44
2019-04-25T12:06:47.025Z,100968.19
2019-04-25T12:09:15.216Z,100969.30
2019-04-25T12:11:45.866Z,100968.41
2019-04-25T12:14:15.006Z,100984.54
2019-04-25T12:16:47.335Z,100977.97
2019-04-25T12:19:14.073Z,100977.19
2019-04-25T12:21:43.744Z,100974.53
2019-04-25T12:24:13.772Z,100979.56
2019-04-25T12:26:45.303Z,100977.02
2019-04-25T12:29:14.421Z,100969.74
2019-04-25T12:31:45.449Z,100970.92
2019-04-25T12:34:14.239Z,100975.09
2019-04-25T12:36:44.318Z,100970.61
2019-04-25T12:39:14.130Z,100978.83
2019-04-25T12:41:45.578Z,100968.28
2019-04-25T12:44:53.952Z,100978.00
2019-04-25T12:47:24.667Z,100973.34
2019-04-25T12:49:54.849Z,100961.31
2019-04-25T12:52:24.689Z,100962.32
2019-04-25T12:54:57.070Z,100953.95
2019-04-25T12:57:25.244Z,100963.06
2019-04-25T12:59:55.333Z,100956.67
2019-04-25T13:02:24.569Z,100962.07
2019-04-25T13:04:55.219Z,100953.31
2019-04-25T13:07:25.071Z,100951.58
2019-04-25T13:09:54.004Z,100949.49
2019-04-25T13:12:23.475Z,100951.02
2019-04-25T13:14:52.474Z,100955.10
2019-04-25T13:17:21.108Z,100954.45
2019-04-25T13:19:50.452Z,100958.52
2019-04-25T13:22:19.597Z,100958.34
2019-04-25T13:24:48.282Z,100959.95
2019-04-25T13:27:26.961Z,100968.20
2019-04-25T13:30:21.178Z,100971.32
2019-04-25T13:33:15.369Z,100964.90
2019-04-25T13:36:00.347Z,100959.95
2019-04-25T13:38:29.350Z,100965.14
2019-04-25T13:40:59.406Z,100955.89
2019-04-25T13:43:28.202Z,100958.55
2019-04-25T13:45:57.116Z,100968.77
2019-04-25T13:48:27.068Z,100971.70
2019-04-25T13:50:56.101Z,100963.50
2019-04-25T13:53:25.659Z,100960.64
2019-04-25T13:55:55.036Z,100956.73
2019-04-25T13:58:25.431Z,100952.11
2019-04-25T14:00:54.362Z,100938.14
2019-04-25T14:03:23.355Z,100935.30
2019-04-25T14:05:53.843Z,100940.04
2019-04-25T14:08:24.690Z,100940.90
2019-04-25T14:10:54.272Z,100940.69
2019-04-25T14:13:25.087Z,100953.96
2019-04-25T14:16:04.713Z,100952.52
2019-04-25T14:18:52.961Z,100951.62
2019-04-25T14:21:24.631Z,100955.66
2019-04-25T14:23:54.104Z,100953.65
2019-04-25T14:26:23.621Z,100951.75
2019-04-25T14:28:54.176Z,100950.41
2019-04-25T14:31:33.764Z,100946.34
2019-04-25T14:33:54.233Z,100947.73
2019-04-25T14:36:25.743Z,100942.78
2019-04-25T14:38:53.340Z,100943.05
2019-04-25T14:41:22.856Z,100943.64
2019-04-25T14:43:53.028Z,100947.68
2019-04-25T14:46:21.657Z,100944.47
2019-04-25T14:48:50.376Z,100945.18
2019-04-25T14:51:19.035Z,100935.92
2019-04-25T14:53:47.658Z,100937.30
2019-04-25T14:56:30.294Z,100937.81
2019-04-25T14:58:59.268Z,100947.67
2019-04-25T15:01:28.294Z,100943.73
2019-04-25T15:03:57.258Z,100947.07
2019-04-25T15:06:26.117Z,100948.87
2019-04-25T15:08:54.715Z,100938.36
2019-04-25T15:11:24.520Z,100948.36
2019-04-25T15:13:53.446Z,100951.56
2019-04-25T15:16:22.378Z,100952.69
2019-04-25T15:18:52.254Z,100948.29
2019-04-25T15:21:20.895Z,100945.80
2019-04-25T15:23:59.575Z,100946.47
2019-04-25T15:26:20.156Z,100948.95
2019-04-25T15:28:58.103Z,100945.84
2019-04-25T15:31:27.878Z,100951.23
2019-04-25T15:33:56.478Z,100949.91
2019-04-25T15:36:31.343Z,100945.54
2019-04-25T15:39:16.870Z,100952.45
2019-04-25T15:41:53.880Z,100948.45
2019-04-25T15:44:44.142Z,100945.48
2019-04-25T15:47:15.901Z,100944.31
2019-04-25T15:49:45.095Z,100941.23
2019-04-25T15:52:14.406Z,100944.19
2019-04-25T15:54:43.399Z,100946.89
2019-04-25T15:57:12.709Z,100941.41
2019-04-25T15:59:41.588Z,100940.84
2019-04-25T16:02:12.531Z,100943.66
2019-04-25T16:04:41.443Z,100938.27
2019-04-25T16:07:10.725Z,100938.25
2019-04-25T16:09:39.711Z,100935.52
2019-04-25T16:12:09.628Z,100939.23
2019-04-25T16:14:38.990Z,100932.45
2019-04-25T16:17:07.829Z,100935.88
2019-04-25T16:19:36.873Z,100929.97
2019-04-25T16:22:05.679Z,100929.98
2019-04-25T16:24:34.419Z,100929.39
2019-04-25T16:27:03.694Z,100925.37
2019-04-25T16:29:33.293Z,100923.79
2019-04-25T16:32:04.463Z,100921.95
2019-04-25T16:34:34.176Z,100921.65
2019-04-25T16:37:03.354Z,100916.52
2019-04-25T16:39:33.865Z,100909.00
2019-04-25T16:42:02.777Z,100913.87
2019-04-25T16:44:31.893Z,100909.97
2019-04-25T16:47:00.866Z,100910.11
2019-04-25T16:49:30.006Z,100902.80
2019-04-25T16:51:58.566Z,100907.25
2019-04-25T16:54:27.187Z,100904.06
2019-04-25T16:56:55.804Z,100899.48
2019-04-25T16:59:24.956Z,100899.78
2019-04-25T17:01:54.009Z,100898.16
2019-04-25T17:04:22.914Z,100895.02
2019-04-25T17:06:51.548Z,100895.05
2019-04-25T17:09:20.478Z,100899.72
2019-04-25T17:11:49.479Z,100909.27
2019-04-25T17:14:35.319Z,100916.99
2019-04-25T17:17:32.619Z,100917.45
2019-04-25T17:20:20.270Z,100918.77
2019-04-25T17:22:49.242Z,100916.69
2019-04-25T17:25:18.541Z,100921.13
2019-04-25T17:27:47.537Z,100921.94
2019-04-25T17:30:17.533Z,100927.45
2019-04-25T17:33:04.148Z,100932.95
2019-04-25T17:35:50.749Z,100928.92
2019-04-25T17:38:25.107Z,100936.36
2019-04-25T17:40:54.364Z,100933.86
2019-04-25T17:43:22.977Z,100940.98
2019-04-25T17:45:51.623Z,100936.50
2019-04-25T17:48:20.265Z,100932.53
2019-04-25T17:50:49.237Z,100933.98
2019-04-25T17:53:20.237Z,100943.30
2019-04-25T17:55:49.180Z,100936.16
2019-04-25T17:58:18.610Z,100936.23
2019-04-25T18:00:48.285Z,100936.80
2019-04-25T18:03:18.405Z,100936.62
2019-04-25T18:05:47.028Z,100938.55
2019-04-25T18:08:15.986Z,100941.14
2019-04-25T18:10:44.974Z,100938.34
2019-04-25T18:13:13.870Z,100938.80
2019-04-25T18:15:52.027Z,100941.91
2019-04-25T18:18:43.525Z,100937.25
2019-04-25T18:21:12.395Z,100945.55
2019-04-25T18:24:00.056Z,100945.20
2019-04-25T18:26:44.271Z,100949.44
2019-04-25T18:29:14.052Z,100951.29
2019-04-25T18:31:43.841Z,100956.59
2019-04-25T18:34:18.947Z,100961.42
2019-04-25T18:37:04.924Z,100962.41
2019-04-25T18:39:40.647Z,100966.45
2019-04-25T18:42:24.314Z,100972.21
2019-04-25T18:44:52.948Z,100971.90
2019-04-25T18:47:21.569Z,100972.16
2019-04-25T18:49:50.417Z,100975.41
2019-04-25T18:52:37.297Z,100967.44
2019-04-25T18:55:16.643Z,100973.94
2019-04-25T18:57:51.458Z,100978.17
2019-04-25T19:00:39.280Z,100982.48
2019-04-25T19:03:23.509Z,100972.70
2019-04-25T19:05:56.190Z,100981.63
2019-04-25T19:08:25.069Z,100981.05
2019-04-25T19:10:54.549Z,100980.14
2019-04-25T19:13:24.627Z,100980.05
2019-04-25T19:15:53.338Z,100979.33
2019-04-25T19:18:22.043Z,100973.02
2019-04-25T19:20:50.674Z,100973.13
2019-04-25T19:23:19.709Z,100969.56
2019-04-25T19:25:48.582Z,100970.27
2019-04-25T19:28:17.241Z,100966.09
2019-04-25T19:30:47.137Z,100962.50
2019-04-25T19:33:16.718Z,100960.30
2019-04-25T19:35:45.743Z,100962.98
2019-04-25T19:38:14.813Z,100967.48
2019-04-25T19:41:02.828Z,100957.56
2019-04-25T19:43:43.188Z,100958.17
2019-04-25T19:46:12.335Z,100963.54
2019-04-25T19:48:41.335Z,100965.33
2019-04-25T19:51:10.676Z,100958.50
2019-04-25T19:53:40.691Z,100968.42
2019-04-25T19:56:10.021Z,100960.31
2019-04-25T19:58:38.986Z,100964.34
2019-04-25T20:01:07.693Z,100961.75
2019-04-25T20:03:54.997Z,100970.33
2019-04-25T20:06:26.573Z,100969.97
2019-04-25T20:09:07.469Z,100975.05
2019-04-25T20:11:45.633Z,100976.05
2019-04-25T20:14:14.634Z,100980.79
2019-04-25T20:16:46.044Z,100972.65
2019-04-25T20:19:14.847Z,100969.61
2019-04-25T20:21:44.843Z,100977.03
2019-04-25T20:24:14.594Z,100978.48
2019-04-25T20:26:44.828Z,100975.73
2019-04-25T20:29:14.016Z,100975.48
2019-04-25T20:31:42.911Z,100978.63
2019-04-25T20:34:11.908Z,100973.47
2019-04-25T20:36:40.908Z,100969.64
2019-04-25T20:39:09.911Z,100969.69
2019-04-25T20:41:38.882Z,100972.73
2019-04-25T20:44:07.879Z,100966.72
2019-04-25T20:46:36.844Z,100966.81
2019-04-25T20:49:05.534Z,100975.09
2019-04-25T20:51:34.753Z,100965.47
2019-04-25T20:54:03.651Z,100959.77
2019-04-25T20:56:32.645Z,100967.80
2019-04-25T20:59:01.642Z,100966.46
2019-04-25T21:01:30.967Z,100965.42
2019-04-25T21:04:12.501Z,100970.30
2019-04-25T21:06:34.561Z,100966.81
2019-04-25T21:09:03.519Z,100964.66
2019-04-25T21:11:32.439Z,100967.81
2019-04-25T21:14:25.497Z,100965.23
2019-04-25T21:17:00.632Z,100966.97
2019-04-25T21:19:31.780Z,100970.47
2019-04-25T21:22:01.096Z,100973.55
2019-04-25T21:24:30.175Z,100968.05
2019-04-25T21:26:59.070Z,100972.87
2019-04-25T21:29:28.068Z,100972.92
2019-04-25T21:31:56.819Z,100963.73
2019-04-25T21:34:28.136Z,100962.91
2019-04-25T21:36:56.271Z,100955.42
2019-04-25T21:39:31.171Z,100965.52
2019-04-25T21:42:07.059Z,100956.88
2019-04-25T21:44:35.871Z,100963.45
2019-04-25T21:47:04.495Z,100957.38
2019-04-25T21:49:33.833Z,100953.44
2019-04-25T21:52:03.124Z,100955.33
2019-04-25T21:54:32.436Z,100950.97
2019-04-25T21:57:01.941Z,100947.88
2019-04-25T21:59:31.139Z,100944.41
2019-04-25T22:02:00.334Z,100948.38
2019-04-25T22:04:38.669Z,100947.95
2019-04-25T22:06:59.964Z,100947.52
2019-04-25T22:09:30.178Z,100944.06
2019-04-25T22:11:59.696Z,100945.41
2019-04-25T22:14:28.324Z,100948.52
2019-04-25T22:16:57.685Z,100949.83
2019-04-25T22:19:27.408Z,100952.95
2019-04-25T22:21:56.452Z,100943.36
2019-04-25T22:24:26.578Z,100947.30
2019-04-25T22:26:58.804Z,100951.67
2019-04-25T22:29:27.872Z,100941.34
2019-04-25T22:32:21.952Z,100939.61
2019-04-25T22:35:05.739Z,100938.72
2019-04-25T22:37:35.304Z,100933.58
2019-04-25T22:40:05.406Z,100933.56
2019-04-25T22:42:34.218Z,100932.64
2019-04-25T22:45:03.779Z,100931.73
2019-04-25T22:47:33.021Z,100932.18
2019-04-25T22:50:02.610Z,100928.33
2019-04-25T22:52:31.928Z,100926.15
2019-04-25T22:55:02.122Z,100923.48
2019-04-25T22:57:31.117Z,100925.77
2019-04-25T23:00:01.625Z,100925.81
2019-04-25T23:02:58.187Z,100924.44
2019-04-25T23:05:37.166Z,100928.84
2019-04-25T23:08:06.543Z,100929.70
2019-04-25T23:10:35.431Z,100928.42
2019-04-25T23:13:04.689Z,100923.16
2019-04-25T23:15:33.410Z,100914.87
2019-04-25T23:18:02.903Z,100915.28
2019-04-25T23:20:33.083Z,100913.12
2019-04-25T23:23:01.946Z,100915.70
2019-04-25T23:25:37.088Z,100916.55
2019-04-25T23:28:14.003Z,100915.30
2019-04-25T23:31:01.948Z,100910.05
2019-04-25T23:33:30.888Z,100913.11
2019-04-25T23:35:59.794Z,100911.84
2019-04-25T23:38:28.681Z,100906.62
2019-04-25T23:40:57.662Z,100903.16
2019-04-25T23:43:26.706Z,100905.33
2019-04-25T23:45:55.964Z,100913.11
2019-04-25T23:48:25.461Z,100905.31
2019-04-25T23:50:54.355Z,100915.32
2019-04-25T23:53:23.247Z,100904.42
2019-04-25T23:55:51.956Z,100910.50
2019-04-25T23:58:20.685Z,100900.55
